Time;durP1;ratioP1;P1;durP2;ratioP2;P2;SDS_P1;SDS_P2;PMS_P1;PMS_P2;Temp;Humidity;BMP_temperature;BMP_pressure;BME280_temperature;BME280_humidity;BME280_pressure;Samples;Min_cycle;Max_cycle;Signal;HPM_P1;HPM_P2
2023/07/30 03:00:50;;;;;;;1.20;1.10;;;24.70;52.80;;;;;;5730196;23;45920;-87
2023/07/30 03:03:16;;;;;;;0.90;0.90;;;24.70;52.80;;;;;;4878490;28;45151;-87
2023/07/30 03:05:42;;;;;;;0.90;0.90;;;24.70;52.90;;;;;;4845494;28;45835;-81
2023/07/30 03:08:08;;;;;;;0.65;0.65;;;24.30;53.70;;;;;;4850987;28;47203;-81
2023/07/30 03:10:34;;;;;;;0.80;0.80;;;24.10;54.30;;;;;;4858072;28;45258;-81
2023/07/30 03:12:59;;;;;;;;;;;24.00;54.60;;;;;;4892977;28;45324;-82
2023/07/30 03:15:25;;;;;;;;;;;23.80;55.10;;;;;;4875742;28;45249;-85
2023/07/30 03:17:50;;;;;;;;;;;23.70;55.30;;;;;;4869559;28;45198;-86
2023/07/30 03:20:16;;;;;;;;;;;23.70;55.50;;;;;;4905019;28;44727;-85
2023/07/30 03:22:41;;;;;;;0.60;0.60;;;23.60;55.60;;;;;;4906573;28;45189;-82
2023/07/30 03:25:07;;;;;;;0.65;0.60;;;23.60;54.90;;;;;;4844043;28;45223;-82
2023/07/30 03:27:33;;;;;;;1.00;0.90;;;23.70;54.90;;;;;;4854928;28;46250;-83
2023/07/30 03:29:58;;;;;;;0.80;0.75;;;23.70;54.90;;;;;;4877290;28;45073;-81
2023/07/30 03:32:24;;;;;;;2.38;1.00;;;23.70;55.00;;;;;;4870780;28;45325;-80
2023/07/30 03:34:50;;;;;;;0.80;0.80;;;23.60;54.90;;;;;;4845126;28;44992;-82
2023/07/30 03:37:15;;;;;;;1.50;0.90;;;23.70;55.00;;;;;;4862314;28;46628;-81
2023/07/30 03:39:41;;;;;;;1.00;0.70;;;23.60;55.00;;;;;;4861248;28;45041;-81
2023/07/30 03:42:06;;;;;;;1.15;0.88;;;23.60;55.10;;;;;;4872478;28;45861;-81
2023/07/30 03:44:32;;;;;;;0.90;0.77;;;23.60;55.10;;;;;;4860074;28;45007;-83
2023/07/30 03:47:00;;;;;;;1.10;1.00;;;23.60;55.10;;;;;;4855833;28;46119;-81
2023/07/30 03:49:26;;;;;;;1.20;0.80;;;23.60;55.20;;;;;;4849045;28;44649;-84
2023/07/30 03:51:52;;;;;;;0.80;0.70;;;23.60;55.20;;;;;;4860992;28;44870;-81
2023/07/30 03:54:17;;;;;;;1.58;0.70;;;23.60;55.30;;;;;;4849059;28;45253;-83
2023/07/30 03:56:43;;;;;;;0.80;0.70;;;23.60;55.30;;;;;;4875722;28;47342;-82
2023/07/30 03:59:08;;;;;;;0.98;0.77;;;23.60;55.30;;;;;;4879123;28;45094;-81
2023/07/30 04:01:34;;;;;;;0.65;0.60;;;23.50;55.30;;;;;;4853298;28;45316;-81
2023/07/30 04:04:00;;;;;;;1.30;1.13;;;23.60;55.40;;;;;;4844611;28;45240;-82
2023/07/30 04:06:25;;;;;;;1.40;1.10;;;23.50;55.30;;;;;;4844414;28;46776;-82
2023/07/30 04:08:51;;;;;;;1.00;0.93;;;23.50;55.30;;;;;;4861326;28;44958;-84
2023/07/30 04:11:17;;;;;;;0.70;0.70;;;23.50;55.40;;;;;;4843655;28;45136;-82
2023/07/30 04:13:42;;;;;;;1.10;0.82;;;23.60;55.50;;;;;;4876801;28;45184;-82
2023/07/30 04:16:08;;;;;;;0.88;0.73;;;23.50;55.40;;;;;;4858171;28;47266;-84
2023/07/30 04:18:33;;;;;;;0.80;0.73;;;23.50;55.40;;;;;;4862748;28;45083;-83
2023/07/30 04:20:59;;;;;;;0.90;0.70;;;23.50;55.40;;;;;;4843414;28;45265;-81
2023/07/30 04:23:25;;;;;;;0.70;0.60;;;23.50;55.50;;;;;;4848593;28;45323;-83
2023/07/30 04:25:50;;;;;;;1.25;0.90;;;23.50;55.50;;;;;;4857967;28;45281;-82
2023/07/30 04:28:16;;;;;;;0.95;0.88;;;23.50;55.50;;;;;;4862114;28;44989;-81
2023/07/30 04:30:42;;;;;;;1.58;0.82;;;23.50;55.50;;;;;;4840792;28;45319;-83
2023/07/30 04:33:07;;;;;;;0.98;0.80;;;23.50;55.50;;;;;;4863344;28;45100;-84
2023/07/30 04:35:33;;;;;;;1.33;0.80;;;23.50;55.60;;;;;;4842977;28;47009;-85
2023/07/30 04:37:58;;;;;;;1.73;1.10;;;23.50;55.60;;;;;;4862762;28;45151;-80
2023/07/30 04:40:24;;;;;;;0.70;0.70;;;23.50;55.60;;;;;;4843246;28;44813;-83
2023/07/30 04:42:50;;;;;;;0.90;0.90;;;23.50;55.70;;;;;;4862209;28;45492;-82
2023/07/30 04:45:15;;;;;;;1.58;0.98;;;23.50;55.60;;;;;;4843936;28;46108;-80
2023/07/30 04:47:41;;;;;;;2.85;0.90;;;23.50;55.60;;;;;;4876252;28;44979;-82
2023/07/30 04:50:07;;;;;;;0.80;0.80;;;23.50;55.70;;;;;;4846609;28;45211;-85
2023/07/30 04:52:33;;;;;;;0.70;0.70;;;23.50;55.60;;;;;;4848300;28;45102;-82
2023/07/30 04:54:58;;;;;;;1.13;1.02;;;23.50;55.70;;;;;;4876671;28;46651;-81
2023/07/30 04:57:24;;;;;;;1.20;1.10;;;23.50;55.70;;;;;;4873553;28;45094;-81
2023/07/30 04:59:49;;;;;;;1.00;0.90;;;23.50;55.70;;;;;;4846708;28;45417;-82
2023/07/30 05:02:15;;;;;;;0.80;0.80;;;23.50;55.70;;;;;;4866902;28;45102;-82
2023/07/30 05:04:40;;;;;;;2.13;1.00;;;23.50;55.70;;;;;;4844588;28;47225;-83
2023/07/30 05:07:06;;;;;;;1.00;0.77;;;23.50;55.70;;;;;;4856067;28;45116;-82
2023/07/30 05:09:32;;;;;;;0.80;0.80;;;23.50;55.70;;;;;;4844033;28;45151;-84
2023/07/30 05:11:57;;;;;;;0.80;0.80;;;23.50;55.70;;;;;;4847570;28;45190;-79
2023/07/30 05:14:23;;;;;;;1.02;0.90;;;23.50;55.70;;;;;;4860838;28;46805;-81
2023/07/30 05:16:49;;;;;;;0.77;0.77;;;23.50;55.70;;;;;;4840795;29;45567;-81
2023/07/30 05:19:15;;;;;;;0.70;0.70;;;23.50;55.70;;;;;;4876149;28;45286;-82
2023/07/30 05:21:41;;;;;;;1.48;1.00;;;23.50;55.70;;;;;;4879237;28;44851;-80
2023/07/30 05:24:07;;;;;;;0.77;0.70;;;23.50;55.80;;;;;;4846686;28;47033;-82
2023/07/30 05:26:33;;;;;;;1.23;0.90;;;23.50;55.80;;;;;;4846441;28;45178;-81
2023/07/30 05:28:58;;;;;;;1.25;0.90;;;23.50;55.80;;;;;;4860297;28;44938;-81
2023/07/30 05:31:24;;;;;;;0.80;0.80;;;23.50;55.80;;;;;;4845587;28;45044;-83
2023/07/30 05:33:49;;;;;;;1.00;0.90;;;23.50;55.80;;;;;;4844397;28;45198;-82
2023/07/30 05:36:15;;;;;;;1.10;0.90;;;23.50;55.80;;;;;;4856722;28;45778;-82
2023/07/30 05:38:40;;;;;;;0.82;0.82;;;23.50;55.80;;;;;;4864542;28;45025;-83
2023/07/30 05:41:06;;;;;;;0.80;0.80;;;23.50;55.80;;;;;;4846163;28;45264;-83
2023/07/30 05:43:32;;;;;;;1.50;0.68;;;23.50;55.80;;;;;;4848317;28;47002;-82
2023/07/30 05:45:57;;;;;;;0.73;0.73;;;23.50;55.80;;;;;;4856771;28;44986;-82
2023/07/30 05:48:23;;;;;;;0.90;0.70;;;23.50;55.80;;;;;;4863633;28;45117;-80
2023/07/30 05:50:48;;;;;;;1.08;0.82;;;23.50;55.80;;;;;;4842147;29;45342;-83
2023/07/30 05:53:14;;;;;;;0.73;0.73;;;23.50;55.80;;;;;;4862354;28;45527;-84
2023/07/30 05:55:40;;;;;;;1.13;0.95;;;23.50;55.80;;;;;;4857693;28;45269;-82
2023/07/30 05:58:05;;;;;;;1.00;0.90;;;23.50;55.80;;;;;;4907900;28;44974;-82
2023/07/30 06:00:34;;;;;;;1.85;0.70;;;23.50;55.90;;;;;;4843041;28;45044;-83
2023/07/30 06:03:00;;;;;;;0.70;0.70;;;23.50;55.90;;;;;;4863323;28;47387;-80
2023/07/30 06:05:26;;;;;;;0.75;0.75;;;23.50;55.90;;;;;;4876151;28;45453;-82
2023/07/30 06:07:51;;;;;;;1.10;1.00;;;23.50;55.90;;;;;;4863643;28;45094;-80
2023/07/30 06:10:17;;;;;;;0.77;0.77;;;23.50;55.90;;;;;;4861777;28;45112;-79
2023/07/30 06:12:42;;;;;;;1.02;0.90;;;23.50;55.90;;;;;;4864917;28;46688;-82
2023/07/30 06:15:12;;;;;;;0.80;0.60;;;23.50;55.90;;;;;;4873435;28;44952;-84
2023/07/30 06:17:37;;;;;;;1.13;0.80;;;23.50;55.90;;;;;;4875625;28;45027;-81
2023/07/30 06:20:03;;;;;;;1.05;0.95;;;23.50;55.90;;;;;;4864513;28;44671;-86
2023/07/30 06:22:29;;;;;;;1.23;0.85;;;23.50;55.90;;;;;;4849155;28;45136;-82
2023/07/30 06:24:55;;;;;;;0.85;0.73;;;23.50;55.90;;;;;;4864914;28;44972;-82
2023/07/30 06:27:20;;;;;;;0.90;0.73;;;23.50;55.90;;;;;;4844945;28;44886;-81
2023/07/30 06:29:47;;;;;;;1.33;0.63;;;23.50;55.90;;;;;;4865260;28;45682;-81
2023/07/30 06:32:12;;;;;;;0.88;0.70;;;23.50;56.00;;;;;;4860590;28;45431;-84
2023/07/30 06:34:38;;;;;;;1.05;0.80;;;23.50;56.00;;;;;;4846860;28;45160;-79
2023/07/30 06:37:04;;;;;;;0.70;0.70;;;23.50;56.00;;;;;;4864916;28;44959;-80
2023/07/30 06:39:29;;;;;;;0.80;0.80;;;23.50;56.00;;;;;;4879392;28;45151;-81
2023/07/30 06:41:55;;;;;;;1.25;0.80;;;23.50;56.00;;;;;;4849946;28;46319;-81
2023/07/30 06:44:21;;;;;;;0.80;0.60;;;23.50;56.00;;;;;;4875130;28;44755;-81
2023/07/30 06:46:46;;;;;;;1.30;0.80;;;23.50;56.00;;;;;;4864509;28;44891;-81
2023/07/30 06:49:12;;;;;;;0.77;0.77;;;23.50;56.00;;;;;;4860542;28;45198;-81
2023/07/30 06:51:37;;;;;;;0.70;0.70;;;23.50;56.00;;;;;;4870863;28;46216;-81
2023/07/30 06:54:03;;;;;;;0.68;0.68;;;23.50;56.00;;;;;;4850790;28;44897;-79
2023/07/30 06:56:28;;;;;;;1.45;0.80;;;23.50;56.00;;;;;;4860880;28;45453;-84
2023/07/30 06:58:54;;;;;;;1.05;0.88;;;23.50;56.00;;;;;;4848560;28;45011;-82
2023/07/30 07:01:19;;;;;;;1.35;0.90;;;23.50;56.00;;;;;;4844774;28;47266;-82
2023/07/30 07:03:45;;;;;;;0.70;0.70;;;23.50;56.00;;;;;;4888112;28;44969;-81
2023/07/30 07:06:11;;;;;;;1.00;0.90;;;23.50;56.00;;;;;;4846174;28;44692;-80
2023/07/30 07:08:36;;;;;;;1.45;0.65;;;23.50;56.00;;;;;;4834597;28;45533;-83
2023/07/30 07:11:02;;;;;;;0.60;0.60;;;23.50;56.00;;;;;;4860976;28;47305;-82
2023/07/30 07:13:28;;;;;;;0.80;0.80;;;23.50;56.10;;;;;;4846714;28;45012;-80
2023/07/30 07:15:53;;;;;;;0.85;0.70;;;23.50;56.10;;;;;;4842777;28;45267;-81
2023/07/30 07:18:19;;;;;;;0.93;0.85;;;23.50;56.10;;;;;;4858842;29;44859;-82
2023/07/30 07:20:44;;;;;;;0.70;0.70;;;23.50;56.10;;;;;;4827530;28;47168;-83
2023/07/30 07:23:10;;;;;;;0.70;0.70;;;23.50;56.10;;;;;;4864965;28;46042;-83
2023/07/30 07:25:37;;;;;;;0.70;0.70;;;23.50;56.10;;;;;;4849451;28;44749;-81
2023/07/30 07:28:02;;;;;;;0.82;0.70;;;23.50;56.10;;;;;;4852360;28;45670;-81
2023/07/30 07:30:28;;;;;;;0.65;0.60;;;23.50;56.10;;;;;;4859305;28;47956;-83
2023/07/30 07:32:55;;;;;;;1.45;0.80;;;23.50;56.10;;;;;;4848472;28;45492;-81
2023/07/30 07:35:20;;;;;;;0.85;0.80;;;23.50;56.10;;;;;;4861005;28;46383;-82
2023/07/30 07:37:46;;;;;;;0.77;0.77;;;23.40;56.00;;;;;;4881997;28;45109;-80
2023/07/30 07:40:12;;;;;;;0.98;0.65;;;23.50;56.10;;;;;;4877870;28;46882;-79
2023/07/30 07:42:38;;;;;;;0.63;0.63;;;23.50;56.10;;;;;;4863242;28;45473;-80
2023/07/30 07:45:05;;;;;;;0.60;0.60;;;23.50;56.10;;;;;;4840211;28;44788;-86
2023/07/30 07:47:30;;;;;;;0.82;0.80;;;23.50;56.10;;;;;;4849148;28;44760;-81
2023/07/30 07:49:56;;;;;;;0.85;0.70;;;23.50;56.10;;;;;;4883503;28;45321;-83
2023/07/30 07:52:22;;;;;;;0.80;0.60;;;23.50;56.10;;;;;;4847720;28;44993;-81
2023/07/30 07:54:47;;;;;;;0.70;0.70;;;23.50;56.10;;;;;;4851301;28;45273;-82
2023/07/30 07:57:13;;;;;;;1.00;0.90;;;23.50;56.10;;;;;;4859903;28;45677;-81
2023/07/30 07:59:38;;;;;;;0.90;0.70;;;23.50;56.10;;;;;;4879210;28;44953;-80
2023/07/30 08:02:04;;;;;;;0.73;0.73;;;23.50;56.10;;;;;;4839331;29;44747;-80
2023/07/30 08:04:30;;;;;;;0.63;0.63;;;23.50;56.10;;;;;;4846286;28;44844;-82
2023/07/30 08:06:59;;;;;;;0.50;0.50;;;23.50;56.10;;;;;;4858735;28;45549;-82
2023/07/30 08:09:25;;;;;;;1.23;0.68;;;23.50;56.10;;;;;;4879031;28;46360;-82
2023/07/30 08:11:50;;;;;;;0.75;0.75;;;23.50;56.10;;;;;;4871161;28;44947;-84
2023/07/30 08:14:16;;;;;;;0.93;0.80;;;23.50;56.10;;;;;;4892306;28;45138;-81
2023/07/30 08:16:42;;;;;;;1.52;0.73;;;23.50;56.10;;;;;;4842653;28;45790;-81
2023/07/30 08:19:07;;;;;;;0.77;0.70;;;23.50;56.10;;;;;;4845100;28;46053;-81
2023/07/30 08:21:33;;;;;;;0.80;0.70;;;23.50;56.10;;;;;;4870632;28;45143;-83
2023/07/30 08:23:58;;;;;;;0.85;0.73;;;23.50;56.10;;;;;;4859183;29;45133;-81
2023/07/30 08:26:24;;;;;;;1.20;0.70;;;23.50;56.10;;;;;;4844806;29;45266;-85
2023/07/30 08:28:50;;;;;;;0.75;0.75;;;23.50;56.10;;;;;;4845531;29;46425;-82
2023/07/30 08:31:16;;;;;;;1.00;0.80;;;23.50;56.10;;;;;;4852727;29;46238;-84
2023/07/30 08:33:41;;;;;;;0.52;0.50;;;23.50;56.10;;;;;;4837787;29;44984;-80
2023/07/30 08:36:07;;;;;;;0.93;0.70;;;23.50;56.10;;;;;;4847787;28;44681;-80
2023/07/30 08:38:32;;;;;;;0.50;0.50;;;23.50;56.10;;;;;;4863047;29;45282;-81
2023/07/30 08:40:58;;;;;;;0.80;0.80;;;23.50;56.20;;;;;;4833004;29;44764;-84
2023/07/30 08:43:23;;;;;;;0.60;0.60;;;23.50;56.10;;;;;;4878789;28;45795;-81
2023/07/30 08:45:49;;;;;;;0.68;0.68;;;23.50;56.10;;;;;;4834603;28;45612;-86
2023/07/30 08:48:15;;;;;;;0.77;0.77;;;23.50;56.10;;;;;;4842821;28;45746;-84
2023/07/30 08:50:40;;;;;;;1.50;0.88;;;23.50;56.10;;;;;;4841075;29;45057;-85
2023/07/30 08:53:06;;;;;;;0.60;0.60;;;23.50;56.10;;;;;;4841900;28;45306;-82
2023/07/30 08:55:35;;;;;;;0.90;0.65;;;23.50;56.20;;;;;;4840323;28;45580;-86
2023/07/30 08:58:04;;;;;;;0.70;0.70;;;23.50;56.20;;;;;;4863736;28;45131;-82
2023/07/30 09:00:32;;;;;;;0.90;0.50;;;23.50;56.20;;;;;;4853463;28;46158;-82
2023/07/30 09:03:00;;;;;;;1.00;0.80;;;23.40;56.10;;;;;;4864095;28;59523;-81
2023/07/30 09:05:29;;;;;;;0.65;0.63;;;23.50;56.10;;;;;;4828235;28;45669;-83
2023/07/30 09:07:54;;;;;;;0.93;0.80;;;23.50;56.10;;;;;;4863038;28;47560;-80
2023/07/30 09:10:20;;;;;;;0.80;0.80;;;23.50;56.20;;;;;;4891261;28;44905;-81
2023/07/30 09:12:46;;;;;;;0.82;0.75;;;23.40;56.10;;;;;;4846596;29;45104;-81
2023/07/30 09:15:11;;;;;;;0.70;0.60;;;23.50;56.20;;;;;;4871192;28;44942;-80
2023/07/30 09:17:40;;;;;;;0.57;0.57;;;23.50;56.20;;;;;;4857056;28;45389;-81
2023/07/30 09:20:06;;;;;;;0.57;0.57;;;23.50;56.20;;;;;;4857128;28;45186;-85
2023/07/30 09:22:33;;;;;;;0.85;0.60;;;23.50;56.10;;;;;;4830378;29;45251;-82
2023/07/30 09:25:02;;;;;;;0.90;0.60;;;23.50;56.10;;;;;;4843983;28;45078;-80
2023/07/30 09:27:28;;;;;;;0.70;0.70;;;23.50;56.10;;;;;;4858984;28;46921;-83
2023/07/30 09:29:55;;;;;;;0.70;0.70;;;23.50;56.10;;;;;;4860649;28;44766;-83
2023/07/30 09:32:31;;;;;;;1.13;0.90;;;23.50;56.10;;;;;;4885366;28;45079;-81
2023/07/30 09:35:07;;;;;;;1.23;0.80;;;23.50;56.10;;;;;;4874563;28;44927;-81
2023/07/30 09:37:35;;;;;;;0.73;0.70;;;23.50;56.20;;;;;;4856324;28;47337;-80
2023/07/30 09:40:01;;;;;;;0.80;0.80;;;23.50;56.10;;;;;;4873849;28;45104;-81
2023/07/30 09:42:30;;;;;;;0.73;0.70;;;23.50;56.10;;;;;;4857557;28;44967;-81
2023/07/30 09:44:58;;;;;;;0.70;0.68;;;23.50;56.10;;;;;;4877687;28;45089;-80
2023/07/30 09:47:26;;;;;;;0.60;0.57;;;23.50;56.10;;;;;;4838829;29;45491;-83
2023/07/30 09:49:53;;;;;;;1.02;0.60;;;23.50;56.10;;;;;;4844423;28;44905;-82
2023/07/30 09:52:19;;;;;;;0.90;0.70;;;23.50;56.10;;;;;;4842882;28;44744;-86
2023/07/30 09:54:45;;;;;;;0.77;0.73;;;23.50;56.10;;;;;;4856324;28;45070;-82
2023/07/30 09:57:10;;;;;;;0.45;0.45;;;23.50;56.30;;;;;;4885510;28;45398;-81
2023/07/30 09:59:37;;;;;;;0.50;0.50;;;23.50;56.10;;;;;;4873792;28;45139;-80
2023/07/30 10:02:03;;;;;;;0.70;0.70;;;23.50;56.10;;;;;;4836710;28;45254;-81
2023/07/30 10:04:29;;;;;;;0.60;0.60;;;23.50;56.10;;;;;;4842054;28;45082;-81
2023/07/30 10:06:59;;;;;;;0.82;0.80;;;23.50;56.10;;;;;;4839121;28;46402;-81
2023/07/30 10:09:28;;;;;;;0.60;0.50;;;23.50;56.20;;;;;;4845861;29;45399;-80
2023/07/30 10:11:54;;;;;;;0.63;0.52;;;23.50;56.10;;;;;;4844592;29;44998;-81
2023/07/30 10:14:22;;;;;;;1.33;0.60;;;23.50;56.10;;;;;;4861867;28;44790;-84
2023/07/30 10:16:53;;;;;;;1.23;0.65;;;23.50;56.10;;;;;;4854450;28;46967;-80
2023/07/30 10:19:22;;;;;;;0.95;0.90;;;23.50;56.20;;;;;;4872974;28;44894;-81
2023/07/30 10:21:48;;;;;;;0.80;0.70;;;23.50;56.20;;;;;;4841655;29;45007;-81
2023/07/30 10:24:13;;;;;;;0.60;0.60;;;23.50;56.20;;;;;;4860746;28;44920;-81
2023/07/30 10:26:39;;;;;;;0.63;0.60;;;23.50;56.20;;;;;;4840074;28;47574;-81
2023/07/30 10:29:18;;;;;;;0.60;0.60;;;23.50;56.20;;;;;;4843582;29;44934;-81
2023/07/30 10:31:57;;;;;;;0.50;0.50;;;23.50;56.30;;;;;;4869810;28;45010;-81
2023/07/30 10:34:26;;;;;;;0.77;0.60;;;23.50;56.40;;;;;;4859974;28;45379;-81
2023/07/30 10:36:52;;;;;;;0.80;0.80;;;23.50;56.20;;;;;;4870830;28;45173;-80
2023/07/30 10:39:27;;;;;;;1.98;0.77;;;23.50;56.20;;;;;;4878155;28;45202;-80
2023/07/30 10:41:57;;;;;;;1.10;0.60;;;23.50;56.30;;;;;;4841400;29;45044;-83
2023/07/30 10:44:25;;;;;;;0.70;0.50;;;23.50;56.30;;;;;;4875157;28;45597;-82
2023/07/30 10:46:54;;;;;;;1.83;0.63;;;23.50;56.30;;;;;;4882999;28;45346;-80
2023/07/30 10:49:20;;;;;;;0.57;0.57;;;23.50;56.30;;;;;;4872066;28;44770;-82
2023/07/30 10:51:46;;;;;;;0.70;0.70;;;23.50;56.30;;;;;;4856956;28;45856;-79
2023/07/30 10:54:11;;;;;;;0.52;0.52;;;23.50;56.30;;;;;;4829252;29;45052;-82
2023/07/30 10:56:46;;;;;;;0.75;0.70;;;23.50;56.30;;;;;;4841028;28;46348;-81
2023/07/30 10:59:12;;;;;;;0.85;0.85;;;23.50;56.30;;;;;;4860259;29;45109;-84
2023/07/30 11:01:46;;;;;;;0.77;0.77;;;23.50;56.30;;;;;;4852430;28;45312;-82
2023/07/30 11:04:14;;;;;;;0.60;0.60;;;23.50;56.40;;;;;;4877837;28;45590;-81
2023/07/30 11:06:49;;;;;;;1.20;0.98;;;23.50;56.30;;;;;;4873672;28;46371;-81
2023/07/30 11:09:22;;;;;;;1.00;0.70;;;23.50;56.30;;;;;;4864162;28;44755;-80
2023/07/30 11:11:48;;;;;;;1.15;0.70;;;23.50;56.30;;;;;;4871955;28;44701;-81
2023/07/30 11:14:19;;;;;;;0.50;0.50;;;23.50;56.30;;;;;;4837879;28;44714;-80
2023/07/30 11:16:58;;;;;;;0.80;0.75;;;23.50;56.30;;;;;;4878614;28;45738;-80
2023/07/30 11:19:23;;;;;;;0.77;0.60;;;23.50;56.40;;;;;;4879425;28;45341;-80
2023/07/30 11:21:52;;;;;;;0.70;0.60;;;23.50;56.30;;;;;;4878215;28;44752;-80
2023/07/30 11:24:17;;;;;;;0.93;0.60;;;23.50;56.30;;;;;;4864624;28;45271;-80
2023/07/30 11:26:43;;;;;;;0.70;0.60;;;23.50;56.30;;;;;;4862722;28;47033;-82
2023/07/30 11:29:19;;;;;;;0.90;0.70;;;23.50;56.30;;;;;;4863117;28;45250;-81
2023/07/30 11:31:44;;;;;;;0.80;0.68;;;23.50;56.40;;;;;;4854275;28;45178;-83
2023/07/30 11:34:10;;;;;;;0.73;0.60;;;23.50;56.30;;;;;;4883202;28;44796;-81
2023/07/30 11:36:36;;;;;;;0.52;0.52;;;23.50;56.30;;;;;;4849051;28;47318;-81
2023/07/30 11:39:01;;;;;;;0.80;0.63;;;23.50;56.30;;;;;;4860830;28;45075;-85
2023/07/30 11:41:27;;;;;;;0.75;0.50;;;23.50;56.30;;;;;;4844855;28;45009;-83
2023/07/30 11:43:53;;;;;;;0.60;0.55;;;23.50;56.30;;;;;;4849366;29;45104;-81
2023/07/30 11:46:22;;;;;;;0.80;0.80;;;23.50;56.30;;;;;;4857653;28;45670;-80
2023/07/30 11:48:48;;;;;;;0.80;0.63;;;23.50;56.30;;;;;;4866838;28;45029;-79
2023/07/30 11:51:21;;;;;;;1.15;0.60;;;23.50;56.30;;;;;;4845792;28;44974;-80
2023/07/30 11:53:51;;;;;;;0.80;0.80;;;23.50;56.40;;;;;;4864861;28;45082;-80
2023/07/30 11:56:19;;;;;;;0.70;0.70;;;23.50;56.40;;;;;;4859159;28;45789;-81
2023/07/30 11:58:45;;;;;;;0.65;0.65;;;23.50;56.30;;;;;;4837316;28;44897;-81
2023/07/30 12:01:11;;;;;;;0.63;0.60;;;23.50;56.30;;;;;;4868911;28;44955;-82
2023/07/30 12:03:37;;;;;;;0.60;0.52;;;23.60;56.40;;;;;;4861293;28;44803;-80
2023/07/30 12:06:06;;;;;;;1.15;0.73;;;23.50;56.30;;;;;;4857144;28;45589;-80
2023/07/30 12:08:33;;;;;;;0.57;0.57;;;23.60;56.40;;;;;;4878062;28;45041;-81
2023/07/30 12:11:05;;;;;;;0.75;0.57;;;23.50;56.30;;;;;;4857702;28;44733;-82
2023/07/30 12:13:31;;;;;;;0.70;0.70;;;23.60;56.40;;;;;;4847322;28;45364;-82
2023/07/30 12:15:56;;;;;;;0.77;0.60;;;23.50;56.30;;;;;;4840132;28;46821;-84
2023/07/30 12:18:25;;;;;;;0.45;0.45;;;23.60;56.40;;;;;;4858921;28;45872;-81
2023/07/30 12:20:52;;;;;;;0.70;0.52;;;23.50;56.30;;;;;;4848824;28;45202;-80
2023/07/30 12:23:18;;;;;;;0.70;0.70;;;23.60;56.40;;;;;;4875705;28;44990;-81
2023/07/30 12:25:43;;;;;;;0.40;0.40;;;23.60;56.40;;;;;;4856246;28;46181;-82
2023/07/30 12:28:09;;;;;;;0.73;0.50;;;23.60;56.40;;;;;;4878126;28;45209;-80
2023/07/30 12:30:36;;;;;;;1.92;0.68;;;23.50;56.40;;;;;;4827196;28;45066;-82
2023/07/30 12:33:02;;;;;;;0.77;0.73;;;23.60;56.40;;;;;;4879341;28;44894;-81
2023/07/30 12:35:28;;;;;;;0.70;0.70;;;23.50;56.90;;;;;;4829490;28;47476;-83
2023/07/30 12:37:53;;;;;;;0.75;0.60;;;23.60;56.40;;;;;;4893777;28;45077;-83
2023/07/30 12:40:22;;;;;;;0.60;0.55;;;23.60;56.40;;;;;;4870225;28;46073;-85
2023/07/30 12:42:48;;;;;;;0.80;0.70;;;23.60;56.50;;;;;;4848037;28;45752;-82
2023/07/30 12:45:13;;;;;;;0.52;0.50;;;23.60;56.40;;;;;;4856209;28;45471;-85
2023/07/30 12:47:40;;;;;;;0.57;0.52;;;23.50;56.40;;;;;;4856539;28;45250;-80
2023/07/30 12:50:11;;;;;;;0.90;0.60;;;23.60;57.10;;;;;;4877198;28;45105;-84
2023/07/30 12:52:37;;;;;;;0.90;0.68;;;23.60;56.50;;;;;;4859263;28;45140;-83
2023/07/30 12:55:06;;;;;;;0.90;0.60;;;23.60;56.50;;;;;;4842175;28;45197;-86
2023/07/30 12:57:32;;;;;;;0.88;0.55;;;23.60;56.60;;;;;;4844238;28;45991;-82
2023/07/30 13:00:21;;;;;;;0.73;0.68;;;23.60;56.50;;;;;;4885020;28;45258;-83
2023/07/30 13:02:46;;;;;;;0.88;0.70;;;23.60;56.50;;;;;;4856450;28;45350;-82
2023/07/30 13:05:15;;;;;;;1.10;0.60;;;23.60;56.60;;;;;;4872033;28;45627;-82
2023/07/30 13:07:41;;;;;;;0.50;0.50;;;23.60;56.60;;;;;;4871258;28;44825;-81
2023/07/30 13:10:07;;;;;;;0.88;0.88;;;23.60;56.60;;;;;;4842502;28;46028;-83
2023/07/30 13:12:33;;;;;;;0.95;0.80;;;23.60;56.60;;;;;;4886047;28;45268;-80
2023/07/30 13:14:59;;;;;;;0.68;0.68;;;23.60;56.60;;;;;;4834484;28;47156;-81
2023/07/30 13:17:25;;;;;;;1.00;0.73;;;23.60;56.70;;;;;;4884439;28;45379;-83
2023/07/30 13:19:50;;;;;;;0.65;0.60;;;23.60;56.60;;;;;;4857842;29;46176;-83
2023/07/30 13:22:16;;;;;;;1.02;0.90;;;23.60;56.50;;;;;;4837696;29;44970;-84
2023/07/30 13:24:41;;;;;;;0.88;0.70;;;23.60;56.60;;;;;;4860195;28;48013;-81
2023/07/30 13:27:07;;;;;;;1.05;0.70;;;23.60;56.60;;;;;;4843766;29;44967;-81
2023/07/30 13:29:32;;;;;;;0.90;0.80;;;23.60;56.60;;;;;;4861013;28;44847;-83
2023/07/30 13:31:58;;;;;;;1.00;0.70;;;23.60;56.60;;;;;;4869104;28;45981;-83
2023/07/30 13:34:23;;;;;;;0.95;0.70;;;23.60;56.60;;;;;;4859990;28;46285;-82
2023/07/30 13:36:49;;;;;;;0.90;0.80;;;23.60;56.50;;;;;;4857775;28;44949;-81
2023/07/30 13:39:15;;;;;;;0.70;0.70;;;23.60;56.50;;;;;;4844231;28;45237;-82
2023/07/30 13:41:40;;;;;;;1.08;0.93;;;23.60;56.50;;;;;;4870732;28;44784;-84
2023/07/30 13:44:06;;;;;;;0.68;0.60;;;23.60;56.50;;;;;;4870008;28;46674;-81
2023/07/30 13:46:32;;;;;;;0.60;0.60;;;23.60;56.50;;;;;;4818188;29;45172;-81
2023/07/30 13:48:57;;;;;;;0.75;0.70;;;23.70;56.50;;;;;;4841575;28;45326;-82
2023/07/30 13:51:23;;;;;;;0.60;0.60;;;23.60;56.50;;;;;;4857901;28;45977;-81
2023/07/30 13:53:48;;;;;;;0.80;0.70;;;23.60;56.50;;;;;;4860752;28;47142;-82
2023/07/30 13:56:14;;;;;;;1.73;0.80;;;23.70;56.50;;;;;;4887209;28;44752;-83
2023/07/30 13:58:40;;;;;;;0.65;0.52;;;23.60;56.50;;;;;;4861675;28;45334;-82
2023/07/30 14:01:06;;;;;;;0.68;0.60;;;23.60;56.50;;;;;;4852012;28;45640;-82
2023/07/30 14:03:32;;;;;;;0.93;0.55;;;23.60;56.50;;;;;;4855862;28;45724;-82
2023/07/30 14:05:58;;;;;;;2.22;0.70;;;23.60;56.50;;;;;;4855309;28;44992;-82
2023/07/30 14:08:23;;;;;;;0.88;0.80;;;23.70;56.50;;;;;;4857887;28;44697;-82
2023/07/30 14:10:49;;;;;;;0.70;0.70;;;23.70;56.50;;;;;;4855514;28;45298;-82
2023/07/30 14:13:15;;;;;;;0.98;0.70;;;23.70;56.50;;;;;;4842466;29;47695;-82
2023/07/30 14:15:41;;;;;;;1.35;0.90;;;23.70;56.50;;;;;;4883606;28;46411;-84
2023/07/30 14:18:06;;;;;;;0.55;0.55;;;23.70;56.60;;;;;;4845357;29;45182;-84
2023/07/30 14:20:32;;;;;;;0.65;0.65;;;23.70;56.50;;;;;;4854145;28;45690;-82
2023/07/30 14:23:01;;;;;;;1.17;1.00;;;23.70;56.50;;;;;;4873599;28;45824;-85
2023/07/30 14:25:29;;;;;;;0.77;0.63;;;23.70;56.50;;;;;;4833711;28;45324;-84
2023/07/30 14:27:55;;;;;;;1.25;0.60;;;23.70;56.50;;;;;;4843222;28;45028;-83
2023/07/30 14:30:20;;;;;;;0.70;0.68;;;23.70;56.50;;;;;;4839562;28;45384;-85
2023/07/30 14:32:46;;;;;;;0.65;0.65;;;23.70;56.50;;;;;;4856323;28;45430;-82
2023/07/30 14:35:12;;;;;;;0.65;0.65;;;23.70;56.50;;;;;;4855041;28;45220;-81
2023/07/30 14:37:37;;;;;;;0.63;0.63;;;23.70;56.50;;;;;;4827900;29;44948;-81
2023/07/30 14:40:03;;;;;;;0.77;0.77;;;23.70;56.50;;;;;;4856122;29;44966;-87
2023/07/30 14:42:32;;;;;;;0.68;0.68;;;23.70;56.50;;;;;;4879960;28;45218;-81
2023/07/30 14:44:58;;;;;;;1.17;0.70;;;23.70;56.50;;;;;;4877862;28;45194;-80
2023/07/30 14:47:23;;;;;;;1.48;0.82;;;23.70;56.40;;;;;;4855218;28;44674;-83
2023/07/30 14:49:51;;;;;;;0.70;0.60;;;23.70;56.40;;;;;;4876870;28;44993;-81
2023/07/30 14:52:17;;;;;;;0.90;0.80;;;23.70;56.50;;;;;;4839000;28;47394;-82
2023/07/30 14:54:44;;;;;;;0.57;0.52;;;23.70;56.50;;;;;;4871407;28;44866;-82
2023/07/30 14:57:09;;;;;;;0.80;0.77;;;23.70;56.40;;;;;;4873131;28;45292;-83
2023/07/30 14:59:35;;;;;;;1.00;0.90;;;23.70;56.50;;;;;;4861677;28;45217;-81
2023/07/30 15:02:01;;;;;;;0.95;0.80;;;23.70;57.00;;;;;;4871607;28;45197;-81
2023/07/30 15:04:26;;;;;;;1.02;0.85;;;23.70;56.40;;;;;;4872918;28;44888;-82
2023/07/30 15:06:52;;;;;;;0.75;0.60;;;23.70;56.40;;;;;;4829633;29;44948;-82
2023/07/30 15:09:17;;;;;;;0.50;0.50;;;23.70;56.40;;;;;;4877310;28;45394;-82
2023/07/30 15:11:43;;;;;;;1.02;0.88;;;23.70;56.50;;;;;;4869796;28;45164;-81
2023/07/30 15:14:09;;;;;;;1.35;0.75;;;23.70;56.40;;;;;;4854644;28;45286;-81
2023/07/30 15:16:34;;;;;;;0.60;0.50;;;23.70;56.40;;;;;;4871977;28;45501;-83
2023/07/30 15:19:00;;;;;;;0.63;0.63;;;23.70;56.40;;;;;;4841114;29;45241;-81
2023/07/30 15:21:25;;;;;;;1.17;0.75;;;23.70;56.40;;;;;;4854557;28;47007;-81
2023/07/30 15:23:51;;;;;;;0.60;0.60;;;23.70;56.50;;;;;;4858098;28;45146;-82
2023/07/30 15:26:17;;;;;;;0.88;0.70;;;23.70;56.40;;;;;;4875458;28;45041;-81
2023/07/30 15:28:42;;;;;;;1.55;0.70;;;23.70;56.50;;;;;;4890594;28;44964;-83
2023/07/30 15:31:09;;;;;;;1.00;0.77;;;23.70;56.40;;;;;;4824474;29;47148;-82
2023/07/30 15:33:34;;;;;;;1.48;0.70;;;23.80;56.50;;;;;;4860806;28;45456;-81
2023/07/30 15:36:00;;;;;;;0.77;0.60;;;23.70;56.40;;;;;;4848129;29;44892;-82
2023/07/30 15:38:25;;;;;;;1.25;0.50;;;23.70;56.40;;;;;;4859919;28;44696;-85
2023/07/30 15:40:51;;;;;;;0.77;0.77;;;23.80;56.50;;;;;;4855740;28;46259;-81
2023/07/30 15:43:16;;;;;;;0.80;0.77;;;23.70;57.00;;;;;;4847165;29;45303;-82